Time;durP1;ratioP1;P1;durP2;ratioP2;P2;SDS_P1;SDS_P2;PMS_P1;PMS_P2;Temp;Humidity;BMP_temperature;BMP_pressure;BME280_temperature;BME280_humidity;BME280_pressure;Samples;Min_cycle;Max_cycle;Signal;HPM_P1;HPM_P2
2023/12/09 00:01:08;;;;;;;42.20;37.63;;;;;;;;;;5053791;28;20568;-77
2023/12/09 00:03:35;;;;;;;40.45;36.53;;;;;;;;;;5054600;28;20270;-77
2023/12/09 00:06:04;;;;;;;42.13;37.63;;;;;;;;;;5053766;28;20212;-77
2023/12/09 00:08:30;;;;;;;38.58;35.17;;;;;;;;;;5053390;28;20232;-77
2023/12/09 00:10:57;;;;;;;41.88;34.72;;;;;;;;;;5054420;28;20281;-77
2023/12/09 00:13:24;;;;;;;38.65;35.05;;;;;;;;;;5054366;28;20219;-77
2023/12/09 00:15:51;;;;;;;37.47;33.80;;;;;;;;;;5053205;28;20208;-77
2023/12/09 00:18:18;;;;;;;39.03;35.25;;;;;;;;;;5054020;28;20228;-77
2023/12/09 00:20:45;;;;;;;39.45;35.75;;;;;;;;;;5053869;28;20267;-78
2023/12/09 00:23:14;;;;;;;40.30;36.72;;;;;;;;;;5053582;28;20216;-77
2023/12/09 00:25:41;;;;;;;39.90;36.00;;;;;;;;;;5053121;28;20653;-77
2023/12/09 00:28:08;;;;;;;39.60;36.08;;;;;;;;;;5053661;28;20564;-78
2023/12/09 00:30:35;;;;;;;37.50;33.65;;;;;;;;;;5054105;28;20234;-77
2023/12/09 00:33:02;;;;;;;37.95;34.30;;;;;;;;;;5053788;28;20261;-77
2023/12/09 00:35:29;;;;;;;37.50;33.80;;;;;;;;;;5053436;28;20208;-75
2023/12/09 00:37:56;;;;;;;36.25;32.55;;;;;;;;;;5053918;28;20232;-76
2023/12/09 00:40:24;;;;;;;40.35;36.20;;;;;;;;;;5053668;28;20680;-76
2023/12/09 00:42:51;;;;;;;38.55;34.60;;;;;;;;;;5053886;28;20204;-75
2023/12/09 00:45:18;;;;;;;39.20;35.17;;;;;;;;;;5052819;28;20275;-75
2023/12/09 00:47:45;;;;;;;41.35;36.83;;;;;;;;;;5053632;28;20266;-76
2023/12/09 00:50:12;;;;;;;45.63;35.97;;;;;;;;;;5053585;28;20212;-75
2023/12/09 00:52:39;;;;;;;37.60;34.22;;;;;;;;;;5053069;28;20261;-76
2023/12/09 00:55:06;;;;;;;39.10;35.20;;;;;;;;;;5052577;28;20212;-78
2023/12/09 00:57:35;;;;;;;40.05;35.70;;;;;;;;;;5052994;28;20676;-75
2023/12/09 01:00:04;;;;;;;39.58;35.53;;;;;;;;;;5053270;28;20228;-75
2023/12/09 01:02:31;;;;;;;37.45;33.75;;;;;;;;;;5053134;28;20278;-77
2023/12/09 01:04:58;;;;;;;38.15;34.05;;;;;;;;;;5052514;28;20262;-76
2023/12/09 01:07:25;;;;;;;36.95;33.70;;;;;;;;;;5052979;28;20231;-76
2023/12/09 01:09:52;;;;;;;38.50;34.42;;;;;;;;;;5053125;28;20207;-76
2023/12/09 01:12:19;;;;;;;37.58;34.17;;;;;;;;;;5052270;28;20216;-77
2023/12/09 01:14:47;;;;;;;36.35;32.55;;;;;;;;;;5052262;28;20246;-77
2023/12/09 01:17:14;;;;;;;37.85;34.03;;;;;;;;;;5052694;28;20232;-76
2023/12/09 01:19:41;;;;;;;39.97;35.72;;;;;;;;;;5052857;28;20208;-76
2023/12/09 01:22:09;;;;;;;36.53;33.10;;;;;;;;;;5052698;28;20212;-77
2023/12/09 01:24:36;;;;;;;36.22;32.67;;;;;;;;;;5052426;28;20218;-77
2023/12/09 01:27:03;;;;;;;34.63;31.83;;;;;;;;;;5052610;28;20224;-77
2023/12/09 01:29:30;;;;;;;35.60;32.30;;;;;;;;;;5052281;28;20208;-77
2023/12/09 01:31:58;;;;;;;34.65;31.73;;;;;;;;;;5052709;28;20261;-76
2023/12/09 01:34:25;;;;;;;33.55;30.27;;;;;;;;;;5052143;28;20262;-76
2023/12/09 01:36:52;;;;;;;33.85;31.08;;;;;;;;;;5052353;28;20282;-76
2023/12/09 01:39:19;;;;;;;35.70;32.70;;;;;;;;;;5052501;28;20204;-77
2023/12/09 01:41:46;;;;;;;33.20;30.27;;;;;;;;;;5051777;28;20220;-76
2023/12/09 01:44:13;;;;;;;33.28;30.33;;;;;;;;;;5051931;28;20212;-76
2023/12/09 01:46:41;;;;;;;33.72;30.25;;;;;;;;;;5052004;28;20711;-77
2023/12/09 01:49:10;;;;;;;33.30;30.50;;;;;;;;;;5052220;28;20200;-77
2023/12/09 01:51:38;;;;;;;35.50;32.23;;;;;;;;;;5052172;28;20212;-76
2023/12/09 01:54:05;;;;;;;33.92;30.65;;;;;;;;;;5051399;28;20466;-76
2023/12/09 01:56:32;;;;;;;34.00;31.08;;;;;;;;;;5051517;28;20305;-76
2023/12/09 01:58:59;;;;;;;33.50;30.40;;;;;;;;;;5052397;28;20232;-76
2023/12/09 02:01:26;;;;;;;33.33;30.52;;;;;;;;;;5051544;28;20212;-76
2023/12/09 02:03:54;;;;;;;32.95;30.20;;;;;;;;;;5051740;28;20259;-76
2023/12/09 02:06:22;;;;;;;32.90;30.02;;;;;;;;;;5051718;28;20216;-76
2023/12/09 02:08:50;;;;;;;33.50;30.50;;;;;;;;;;5051995;28;20537;-76
2023/12/09 02:11:20;;;;;;;32.85;30.02;;;;;;;;;;5052455;28;20208;-76
2023/12/09 02:13:52;;;;;;;30.42;27.65;;;;;;;;;;5052347;28;20220;-77
2023/12/09 02:16:24;;;;;;;32.88;30.08;;;;;;;;;;5052287;28;20188;-76
2023/12/09 02:18:51;;;;;;;31.10;28.63;;;;;;;;;;5051531;28;20695;-76
2023/12/09 02:21:18;;;;;;;31.92;28.70;;;;;;;;;;5051466;28;20668;-76
2023/12/09 02:23:47;;;;;;;31.60;28.95;;;;;;;;;;5050941;28;20208;-77
2023/12/09 02:26:15;;;;;;;32.03;29.53;;;;;;;;;;5051502;28;20211;-77
2023/12/09 02:28:46;;;;;;;34.23;31.20;;;;;;;;;;5051370;28;20454;-77
2023/12/09 02:31:15;;;;;;;30.73;28.38;;;;;;;;;;5051603;28;20485;-75
2023/12/09 02:33:43;;;;;;;34.33;31.63;;;;;;;;;;5050678;28;20216;-76
2023/12/09 02:36:11;;;;;;;33.67;30.77;;;;;;;;;;5051190;28;20447;-76
2023/12/09 02:38:39;;;;;;;33.77;30.47;;;;;;;;;;5051457;28;20494;-76
2023/12/09 02:41:08;;;;;;;34.90;32.10;;;;;;;;;;5051134;28;21033;-76
2023/12/09 02:43:35;;;;;;;33.20;30.20;;;;;;;;;;5051409;28;20861;-76
2023/12/09 02:46:02;;;;;;;31.02;28.20;;;;;;;;;;5050571;28;20501;-76
2023/12/09 02:48:29;;;;;;;32.65;29.50;;;;;;;;;;5051218;28;20220;-76
2023/12/09 02:50:56;;;;;;;32.77;30.03;;;;;;;;;;5051351;28;20274;-76
2023/12/09 02:53:23;;;;;;;32.27;29.27;;;;;;;;;;5051316;28;20444;-76
2023/12/09 02:55:50;;;;;;;30.77;28.17;;;;;;;;;;5050778;28;20446;-76
2023/12/09 02:58:18;;;;;;;38.67;34.77;;;;;;;;;;5050984;28;20540;-76
2023/12/09 03:00:45;;;;;;;32.83;30.13;;;;;;;;;;5050913;28;20443;-76
2023/12/09 03:03:12;;;;;;;34.10;30.80;;;;;;;;;;5051403;28;20447;-76
2023/12/09 03:05:39;;;;;;;31.53;29.13;;;;;;;;;;5050451;28;20786;-76
2023/12/09 03:08:06;;;;;;;35.33;32.00;;;;;;;;;;5050997;28;20470;-75
2023/12/09 03:10:33;;;;;;;33.20;29.80;;;;;;;;;;5050812;28;20947;-76
2023/12/09 03:13:00;;;;;;;32.37;29.77;;;;;;;;;;5050621;28;20442;-75
2023/12/09 03:15:29;;;;;;;33.05;30.02;;;;;;;;;;5050835;28;20435;-76
2023/12/09 03:17:56;;;;;;;33.33;30.30;;;;;;;;;;5051102;28;20281;-76
2023/12/09 03:20:25;;;;;;;32.37;29.40;;;;;;;;;;5051087;28;20480;-76
2023/12/09 03:22:52;;;;;;;33.33;29.67;;;;;;;;;;5050920;28;20458;-76
2023/12/09 03:25:19;;;;;;;29.63;26.67;;;;;;;;;;5049871;28;20429;-76
2023/12/09 03:27:46;;;;;;;31.30;28.20;;;;;;;;;;5050872;28;20442;-76
2023/12/09 03:30:13;;;;;;;30.70;27.60;;;;;;;;;;5050978;28;20447;-76
2023/12/09 03:32:41;;;;;;;30.37;27.37;;;;;;;;;;5050766;28;20483;-76
2023/12/09 03:35:09;;;;;;;30.40;28.10;;;;;;;;;;5050133;28;20425;-77
2023/12/09 03:37:36;;;;;;;28.83;26.20;;;;;;;;;;5050232;28;20982;-76
2023/12/09 03:40:04;;;;;;;29.47;26.67;;;;;;;;;;5050605;28;20447;-75
2023/12/09 03:42:31;;;;;;;29.58;27.33;;;;;;;;;;5050923;28;20472;-76
2023/12/09 03:44:58;;;;;;;29.90;26.60;;;;;;;;;;5050153;28;20208;-76
2023/12/09 03:47:25;;;;;;;30.08;27.65;;;;;;;;;;5050506;28;20524;-76
2023/12/09 03:49:53;;;;;;;28.08;25.50;;;;;;;;;;5050302;28;20738;-76
2023/12/09 03:52:20;;;;;;;30.53;27.90;;;;;;;;;;5050495;28;20234;-77
2023/12/09 03:54:47;;;;;;;28.38;26.30;;;;;;;;;;5048842;28;20949;-76
2023/12/09 03:57:15;;;;;;;29.92;27.48;;;;;;;;;;5050159;28;20235;-76
2023/12/09 03:59:42;;;;;;;28.60;26.40;;;;;;;;;;5050389;28;20228;-76
2023/12/09 04:02:09;;;;;;;26.37;24.23;;;;;;;;;;5050559;28;20512;-76
2023/12/09 04:04:38;;;;;;;27.40;24.77;;;;;;;;;;5049951;28;20509;-77
2023/12/09 04:07:06;;;;;;;27.13;24.48;;;;;;;;;;5050567;28;20584;-76
2023/12/09 04:09:33;;;;;;;27.00;24.45;;;;;;;;;;5050672;28;20204;-77
2023/12/09 04:12:01;;;;;;;26.80;25.00;;;;;;;;;;5050120;28;20209;-77
2023/12/09 04:14:28;;;;;;;27.67;25.63;;;;;;;;;;5049684;28;20937;-76
2023/12/09 04:16:54;;;;;;;27.27;25.27;;;;;;;;;;5050359;28;20803;-76
2023/12/09 04:19:22;;;;;;;27.23;25.20;;;;;;;;;;5052127;28;20945;-76
2023/12/09 04:21:50;;;;;;;26.60;24.40;;;;;;;;;;5053952;28;20469;-76
2023/12/09 04:24:19;;;;;;;27.15;24.80;;;;;;;;;;5053439;28;20304;-76
2023/12/09 04:26:46;;;;;;;25.95;24.00;;;;;;;;;;5070231;28;20241;-76
2023/12/09 04:29:13;;;;;;;26.50;24.08;;;;;;;;;;5073855;28;20675;-76
2023/12/09 04:31:40;;;;;;;27.03;24.57;;;;;;;;;;5073868;28;20666;-76
2023/12/09 04:34:07;;;;;;;26.40;23.87;;;;;;;;;;5072958;28;20532;-76
2023/12/09 04:36:34;;;;;;;24.52;22.95;;;;;;;;;;5073766;28;20527;-77
2023/12/09 04:39:01;;;;;;;25.10;23.33;;;;;;;;;;5073367;28;20307;-76
2023/12/09 04:41:29;;;;;;;23.45;21.83;;;;;;;;;;5073544;28;20207;-76
2023/12/09 04:43:56;;;;;;;24.83;23.20;;;;;;;;;;5073020;28;20249;-76
2023/12/09 04:46:23;;;;;;;25.50;23.80;;;;;;;;;;5073409;28;20253;-76
2023/12/09 04:48:50;;;;;;;26.13;23.83;;;;;;;;;;5073265;28;20442;-77
2023/12/09 04:51:17;;;;;;;24.50;22.80;;;;;;;;;;5073483;28;20438;-76
2023/12/09 04:53:44;;;;;;;27.52;25.13;;;;;;;;;;5073195;28;20430;-77
2023/12/09 04:56:11;;;;;;;24.63;22.95;;;;;;;;;;5072852;28;20208;-76
2023/12/09 04:58:39;;;;;;;28.23;25.93;;;;;;;;;;5073214;28;20277;-76
2023/12/09 05:01:06;;;;;;;26.65;24.88;;;;;;;;;;5073394;28;20834;-76
2023/12/09 05:03:34;;;;;;;25.13;23.47;;;;;;;;;;5073369;28;20199;-77
2023/12/09 05:06:01;;;;;;;28.05;25.83;;;;;;;;;;5072827;28;20457;-77
2023/12/09 05:08:29;;;;;;;27.17;25.27;;;;;;;;;;5073151;28;20624;-76
2023/12/09 05:10:58;;;;;;;31.33;28.50;;;;;;;;;;5072964;28;20477;-77
2023/12/09 05:13:25;;;;;;;26.95;25.15;;;;;;;;;;5072895;28;20218;-76
2023/12/09 05:15:53;;;;;;;27.30;25.45;;;;;;;;;;5072604;28;20241;-76
2023/12/09 05:18:20;;;;;;;27.65;25.48;;;;;;;;;;5072600;28;20227;-76
2023/12/09 05:20:47;;;;;;;27.25;25.02;;;;;;;;;;5072851;28;20290;-76
2023/12/09 05:23:14;;;;;;;26.65;24.55;;;;;;;;;;5072940;28;20207;-77
2023/12/09 05:25:41;;;;;;;27.40;25.58;;;;;;;;;;5071966;28;20211;-75
2023/12/09 05:28:08;;;;;;;23.27;21.97;;;;;;;;;;5072591;28;20310;-77
2023/12/09 05:30:35;;;;;;;24.73;23.13;;;;;;;;;;5071376;28;20437;-76
2023/12/09 05:33:04;;;;;;;26.23;24.13;;;;;;;;;;5072250;28;20446;-76
2023/12/09 05:35:31;;;;;;;25.43;23.50;;;;;;;;;;5071609;28;20480;-77
2023/12/09 05:37:58;;;;;;;24.40;22.80;;;;;;;;;;5072473;28;20466;-77
2023/12/09 05:40:25;;;;;;;24.88;23.27;;;;;;;;;;5072286;28;20477;-77
2023/12/09 05:42:52;;;;;;;26.20;24.07;;;;;;;;;;5071949;28;20203;-76
2023/12/09 05:45:19;;;;;;;27.27;24.60;;;;;;;;;;5071711;28;20438;-76
2023/12/09 05:47:46;;;;;;;24.95;23.35;;;;;;;;;;5064439;28;20475;-77
2023/12/09 05:50:14;;;;;;;26.30;24.40;;;;;;;;;;5052012;28;20208;-77
2023/12/09 05:52:42;;;;;;;26.17;24.00;;;;;;;;;;5051802;28;20969;-76
2023/12/09 05:55:09;;;;;;;23.67;22.07;;;;;;;;;;5051885;28;20454;-76
2023/12/09 05:57:36;;;;;;;26.50;24.05;;;;;;;;;;5052191;28;20520;-76
2023/12/09 06:00:05;;;;;;;25.58;23.75;;;;;;;;;;5052397;28;20622;-76
2023/12/09 06:02:32;;;;;;;25.90;24.17;;;;;;;;;;5052147;28;20730;-77
2023/12/09 06:04:59;;;;;;;25.40;23.15;;;;;;;;;;5051467;28;20927;-77
2023/12/09 06:07:27;;;;;;;26.63;24.67;;;;;;;;;;5051959;28;20239;-76
2023/12/09 06:09:54;;;;;;;26.83;24.50;;;;;;;;;;5051863;28;20204;-76
2023/12/09 06:12:21;;;;;;;26.25;24.10;;;;;;;;;;5051600;28;20481;-77
2023/12/09 06:14:48;;;;;;;25.43;23.40;;;;;;;;;;5050903;28;20216;-76
2023/12/09 06:17:15;;;;;;;24.85;23.25;;;;;;;;;;5051545;28;20470;-76
2023/12/09 06:19:42;;;;;;;26.92;24.30;;;;;;;;;;5051328;28;20696;-76
2023/12/09 06:22:10;;;;;;;26.07;23.87;;;;;;;;;;5051733;28;20625;-77
2023/12/09 06:24:37;;;;;;;26.60;24.30;;;;;;;;;;5051006;28;20780;-76
2023/12/09 06:27:05;;;;;;;25.87;23.50;;;;;;;;;;5051842;28;20255;-77
2023/12/09 06:29:34;;;;;;;25.65;23.50;;;;;;;;;;5051404;28;20454;-77
2023/12/09 06:32:01;;;;;;;24.53;22.83;;;;;;;;;;5050844;28;20714;-75
2023/12/09 06:34:28;;;;;;;25.75;23.88;;;;;;;;;;5051243;28;20516;-76
2023/12/09 06:36:55;;;;;;;25.52;23.48;;;;;;;;;;5051840;28;20228;-80
2023/12/09 06:39:22;;;;;;;25.53;23.73;;;;;;;;;;5051250;28;20248;-76
2023/12/09 06:41:51;;;;;;;25.30;23.50;;;;;;;;;;5051019;28;20446;-76
2023/12/09 06:44:18;;;;;;;25.87;23.73;;;;;;;;;;5049381;28;20289;-77
2023/12/09 06:46:45;;;;;;;28.70;26.67;;;;;;;;;;5051480;28;20463;-76
2023/12/09 06:49:12;;;;;;;26.63;24.33;;;;;;;;;;5051039;28;20466;-76
2023/12/09 06:51:40;;;;;;;27.00;25.05;;;;;;;;;;5051889;28;20564;-76
2023/12/09 06:54:07;;;;;;;27.93;25.60;;;;;;;;;;5050876;28;20205;-76
2023/12/09 06:56:34;;;;;;;26.02;24.23;;;;;;;;;;5051547;28;20492;-76
2023/12/09 06:59:03;;;;;;;27.70;25.15;;;;;;;;;;5051636;28;20227;-76
2023/12/09 07:01:30;;;;;;;28.15;25.50;;;;;;;;;;5050886;28;20283;-76
2023/12/09 07:03:57;;;;;;;25.20;23.30;;;;;;;;;;5050424;28;20266;-75
2023/12/09 07:06:25;;;;;;;24.42;22.60;;;;;;;;;;5051633;28;20356;-75
2023/12/09 07:08:52;;;;;;;25.95;23.88;;;;;;;;;;5051017;28;20203;-77
2023/12/09 07:11:20;;;;;;;24.73;23.13;;;;;;;;;;5051341;28;20210;-76
2023/12/09 07:13:47;;;;;;;25.73;23.90;;;;;;;;;;5051021;28;20212;-77
2023/12/09 07:16:15;;;;;;;25.90;23.73;;;;;;;;;;5050779;28;20604;-76
2023/12/09 07:18:43;;;;;;;24.10;22.60;;;;;;;;;;5050794;28;20261;-75
2023/12/09 07:21:10;;;;;;;25.92;23.90;;;;;;;;;;5050718;28;20280;-76
2023/12/09 07:23:37;;;;;;;25.13;23.50;;;;;;;;;;5050873;28;20640;-76
2023/12/09 07:26:04;;;;;;;24.60;22.80;;;;;;;;;;5050388;28;20679;-76
2023/12/09 07:28:31;;;;;;;25.58;23.67;;;;;;;;;;5051117;28;20286;-77
2023/12/09 07:30:58;;;;;;;25.25;23.42;;;;;;;;;;5051238;28;20192;-76
2023/12/09 07:33:27;;;;;;;24.85;23.25;;;;;;;;;;5051191;28;20204;-75
2023/12/09 07:35:54;;;;;;;25.60;23.30;;;;;;;;;;5050485;28;20216;-76
2023/12/09 07:38:21;;;;;;;25.80;23.77;;;;;;;;;;5050787;28;20478;-77
2023/12/09 07:40:49;;;;;;;26.27;24.00;;;;;;;;;;5050873;28;20254;-76
2023/12/09 07:43:16;;;;;;;27.10;25.20;;;;;;;;;;5050813;28;20254;-76
2023/12/09 07:45:43;;;;;;;26.77;24.45;;;;;;;;;;5050250;28;20730;-77
2023/12/09 07:48:10;;;;;;;27.20;25.33;;;;;;;;;;5050621;28;20785;-76
2023/12/09 07:50:38;;;;;;;26.77;24.77;;;;;;;;;;5050609;28;21005;-76
2023/12/09 07:53:05;;;;;;;28.03;25.70;;;;;;;;;;5050646;28;20258;-77
2023/12/09 07:55:32;;;;;;;27.45;25.75;;;;;;;;;;5054514;28;20450;-80
2023/12/09 07:57:59;;;;;;;28.92;26.25;;;;;;;;;;5054765;28;20235;-77
2023/12/09 08:00:27;;;;;;;29.50;26.85;;;;;;;;;;5054821;28;20219;-76
2023/12/09 08:02:54;;;;;;;28.23;26.33;;;;;;;;;;5054537;28;20212;-77
2023/12/09 08:05:21;;;;;;;29.23;27.02;;;;;;;;;;5053610;28;20226;-77
2023/12/09 08:07:50;;;;;;;27.40;25.38;;;;;;;;;;5054003;28;20228;-77
2023/12/09 08:10:17;;;;;;;27.92;25.95;;;;;;;;;;5053691;28;20208;-77
2023/12/09 08:12:44;;;;;;;27.05;24.70;;;;;;;;;;5054218;28;20234;-77
2023/12/09 08:15:12;;;;;;;26.80;24.75;;;;;;;;;;5053244;28;20242;-77
2023/12/09 08:17:39;;;;;;;27.08;25.13;;;;;;;;;;5054718;28;20221;-77
2023/12/09 08:20:08;;;;;;;27.80;25.40;;;;;;;;;;5054267;28;21035;-77
2023/12/09 08:22:36;;;;;;;28.45;26.15;;;;;;;;;;5054323;28;20652;-77
2023/12/09 08:25:05;;;;;;;29.27;26.80;;;;;;;;;;5053794;28;20208;-76
2023/12/09 08:27:32;;;;;;;26.27;24.52;;;;;;;;;;5053731;28;21311;-77
2023/12/09 08:29:59;;;;;;;27.80;25.70;;;;;;;;;;5054368;28;20200;-77
2023/12/09 08:32:27;;;;;;;26.33;24.13;;;;;;;;;;5054310;28;20446;-77
2023/12/09 08:34:54;;;;;;;25.52;23.65;;;;;;;;;;5053814;28;20200;-77
2023/12/09 08:37:25;;;;;;;25.65;23.80;;;;;;;;;;5054171;28;20294;-77
2023/12/09 08:39:54;;;;;;;25.10;23.17;;;;;;;;;;5054050;28;20220;-76
2023/12/09 08:42:22;;;;;;;25.48;23.20;;;;;;;;;;5053660;28;20231;-77
2023/12/09 08:44:49;;;;;;;24.55;23.05;;;;;;;;;;5052382;28;20204;-77
2023/12/09 08:47:16;;;;;;;24.40;22.80;;;;;;;;;;5054286;28;20286;-76
2023/12/09 08:49:44;;;;;;;25.00;23.10;;;;;;;;;;5053219;28;20215;-76
2023/12/09 08:52:11;;;;;;;25.45;23.35;;;;;;;;;;5053056;28;20419;-76
2023/12/09 08:54:38;;;;;;;24.83;23.10;;;;;;;;;;5051580;28;20874;-76
2023/12/09 08:57:05;;;;;;;26.10;24.00;;;;;;;;;;5052807;28;20762;-76
2023/12/09 08:59:33;;;;;;;23.55;21.98;;;;;;;;;;5052976;28;20231;-76
2023/12/09 09:02:00;;;;;;;23.55;21.70;;;;;;;;;;5052523;28;20254;-76
2023/12/09 09:04:27;;;;;;;23.40;21.90;;;;;;;;;;5052055;28;20227;-76
2023/12/09 09:06:54;;;;;;;23.33;21.60;;;;;;;;;;5052469;28;20216;-77
2023/12/09 09:09:21;;;;;;;22.48;21.08;;;;;;;;;;5051839;28;20204;-74
2023/12/09 09:11:48;;;;;;;25.13;22.93;;;;;;;;;;5052791;28;20211;-75
2023/12/09 09:14:15;;;;;;;22.75;21.35;;;;;;;;;;5051277;28;20454;-76
2023/12/09 09:16:43;;;;;;;23.60;22.17;;;;;;;;;;5051688;28;20220;-77
2023/12/09 09:19:10;;;;;;;24.33;22.73;;;;;;;;;;5052117;28;20209;-76
2023/12/09 09:21:37;;;;;;;24.48;22.60;;;;;;;;;;5051169;28;20236;-76
2023/12/09 09:24:05;;;;;;;23.33;21.75;;;;;;;;;;5051228;28;20212;-77
2023/12/09 09:26:33;;;;;;;23.60;21.90;;;;;;;;;;5051869;28;20228;-77
2023/12/09 09:29:00;;;;;;;22.45;21.15;;;;;;;;;;5051162;28;20292;-77
2023/12/09 09:31:27;;;;;;;21.67;20.27;;;;;;;;;;5051825;28;20211;-76
2023/12/09 09:33:55;;;;;;;22.75;21.35;;;;;;;;;;5050600;28;20212;-76
2023/12/09 09:36:22;;;;;;;22.75;21.05;;;;;;;;;;5051356;28;20204;-76
2023/12/09 09:38:50;;;;;;;22.25;20.50;;;;;;;;;;5050382;28;20207;-76
2023/12/09 09:41:23;;;;;;;23.17;21.25;;;;;;;;;;5051531;28;20228;-77
2023/12/09 09:43:54;;;;;;;21.85;20.40;;;;;;;;;;5051007;28;20208;-76
2023/12/09 09:46:22;;;;;;;21.37;20.20;;;;;;;;;;5050428;28;20212;-77
2023/12/09 09:48:52;;;;;;;21.02;19.73;;;;;;;;;;5051051;28;20934;-77
2023/12/09 09:51:26;;;;;;;21.60;20.13;;;;;;;;;;5051344;28;20669;-78
2023/12/09 09:53:59;;;;;;;20.23;19.10;;;;;;;;;;5051442;28;20545;-81
2023/12/09 09:56:26;;;;;;;20.77;19.52;;;;;;;;;;5051232;28;20914;-76
2023/12/09 09:58:53;;;;;;;22.00;20.30;;;;;;;;;;5050915;28;20212;-77
2023/12/09 10:01:23;;;;;;;21.20;19.70;;;;;;;;;;5056166;28;20235;-77
2023/12/09 10:03:50;;;;;;;20.67;19.37;;;;;;;;;;5051525;28;20443;-78
2023/12/09 10:06:17;;;;;;;21.75;20.38;;;;;;;;;;5051017;28;20947;-77
2023/12/09 10:08:46;;;;;;;21.38;20.17;;;;;;;;;;5051383;28;20310;-77
2023/12/09 10:11:13;;;;;;;20.30;18.95;;;;;;;;;;5051405;28;20200;-78
2023/12/09 10:13:41;;;;;;;21.23;19.92;;;;;;;;;;5051148;28;20216;-78
2023/12/09 10:16:08;;;;;;;20.95;19.48;;;;;;;;;;5050039;28;20208;-77
2023/12/09 10:18:36;;;;;;;20.53;19.23;;;;;;;;;;5057061;28;20294;-81
2023/12/09 10:21:04;;;;;;;20.43;18.90;;;;;;;;;;5059800;28;20486;-80
2023/12/09 10:23:31;;;;;;;20.80;19.08;;;;;;;;;;5060156;28;20867;-80
2023/12/09 10:26:01;;;;;;;20.30;19.20;;;;;;;;;;5058919;28;20204;-81
2023/12/09 10:28:29;;;;;;;21.15;19.77;;;;;;;;;;5061134;28;20955;-81
2023/12/09 10:30:57;;;;;;;21.37;19.90;;;;;;;;;;5060734;28;20234;-83
2023/12/09 10:33:24;;;;;;;18.77;17.75;;;;;;;;;;5060904;28;20538;-82
2023/12/09 10:35:52;;;;;;;21.17;19.47;;;;;;;;;;5060105;28;20235;-83
2023/12/09 10:38:19;;;;;;;18.98;17.88;;;;;;;;;;5058336;28;20470;-79
2023/12/09 10:40:49;;;;;;;19.02;17.88;;;;;;;;;;5056136;28;20223;-83
2023/12/09 10:43:17;;;;;;;21.27;19.27;;;;;;;;;;5060193;28;20212;-81
2023/12/09 10:45:44;;;;;;;18.77;17.67;;;;;;;;;;5058635;28;20477;-82
2023/12/09 10:48:11;;;;;;;19.35;17.90;;;;;;;;;;5058232;28;20232;-82
2023/12/09 10:50:38;;;;;;;19.00;17.90;;;;;;;;;;5059934;28;20973;-80
2023/12/09 10:53:05;;;;;;;19.60;18.40;;;;;;;;;;5059868;28;20207;-80
2023/12/09 10:55:32;;;;;;;18.03;17.23;;;;;;;;;;5058683;28;20473;-80
2023/12/09 10:58:00;;;;;;;19.30;18.00;;;;;;;;;;5059519;28;20528;-81
2023/12/09 11:00:30;;;;;;;18.58;17.30;;;;;;;;;;5067459;28;20994;-77
2023/12/09 11:02:57;;;;;;;21.03;19.70;;;;;;;;;;5071648;28;20214;-77
2023/12/09 11:05:24;;;;;;;20.45;18.77;;;;;;;;;;5070981;28;20449;-77
2023/12/09 11:07:52;;;;;;;19.97;18.97;;;;;;;;;;5071199;28;20235;-76
2023/12/09 11:10:20;;;;;;;19.97;18.60;;;;;;;;;;5070476;28;20465;-76
2023/12/09 11:12:48;;;;;;;18.90;17.70;;;;;;;;;;5071039;28;20400;-75
2023/12/09 11:15:22;;;;;;;19.90;18.60;;;;;;;;;;5070237;28;20458;-77
2023/12/09 11:17:50;;;;;;;17.97;16.77;;;;;;;;;;5070255;28;20550;-76
2023/12/09 11:20:18;;;;;;;18.27;17.00;;;;;;;;;;5070338;28;20470;-75
2023/12/09 11:22:46;;;;;;;17.80;16.80;;;;;;;;;;5071009;28;20481;-76
2023/12/09 11:25:21;;;;;;;17.57;16.50;;;;;;;;;;5070364;28;20491;-78
2023/12/09 11:27:50;;;;;;;18.37;17.00;;;;;;;;;;5071927;28;20504;-76
2023/12/09 11:30:30;;;;;;;18.63;17.40;;;;;;;;;;5074067;28;20446;-75
2023/12/09 11:32:58;;;;;;;19.47;18.07;;;;;;;;;;5074702;28;20896;-76
2023/12/09 11:35:26;;;;;;;19.30;18.00;;;;;;;;;;5074031;28;20537;-75
2023/12/09 11:37:54;;;;;;;18.57;17.47;;;;;;;;;;5074178;28;20465;-76
2023/12/09 11:40:21;;;;;;;17.47;16.50;;;;;;;;;;5074088;28;20493;-75
2023/12/09 11:42:48;;;;;;;17.73;16.50;;;;;;;;;;5074651;28;20469;-77
2023/12/09 11:45:15;;;;;;;18.37;17.37;;;;;;;;;;5073348;28;20445;-76
2023/12/09 11:47:43;;;;;;;19.17;17.80;;;;;;;;;;5074435;28;20515;-76
2023/12/09 11:50:11;;;;;;;18.37;17.27;;;;;;;;;;5074757;28;20424;-74
2023/12/09 11:52:38;;;;;;;19.03;17.83;;;;;;;;;;5074645;28;20446;-76
2023/12/09 11:55:10;;;;;;;18.50;17.50;;;;;;;;;;5073036;28;20503;-76
2023/12/09 11:57:37;;;;;;;19.43;18.33;;;;;;;;;;5073856;28;20484;-76
2023/12/09 12:00:06;;;;;;;19.07;17.97;;;;;;;;;;5060712;28;20485;-78
2023/12/09 12:02:33;;;;;;;18.47;17.50;;;;;;;;;;5056279;28;20454;-80
2023/12/09 12:05:00;;;;;;;18.17;17.17;;;;;;;;;;5055583;28;20425;-76
2023/12/09 12:07:28;;;;;;;18.43;17.53;;;;;;;;;;5077577;28;20465;-81
2023/12/09 12:09:55;;;;;;;17.63;16.73;;;;;;;;;;5079250;28;20491;-77
2023/12/09 12:12:23;;;;;;;19.03;17.97;;;;;;;;;;5071711;28;20509;-76
2023/12/09 12:14:51;;;;;;;19.70;18.30;;;;;;;;;;5057464;28;20488;-77
2023/12/09 12:17:18;;;;;;;19.47;18.27;;;;;;;;;;5054290;28;20473;-76
2023/12/09 12:19:45;;;;;;;20.93;19.13;;;;;;;;;;5054284;28;20498;-78
2023/12/09 12:22:12;;;;;;;19.33;18.33;;;;;;;;;;5054501;28;20486;-76
2023/12/09 12:24:44;;;;;;;18.70;17.70;;;;;;;;;;5053620;28;20454;-77
2023/12/09 12:27:11;;;;;;;19.10;17.97;;;;;;;;;;5053813;28;20462;-77
2023/12/09 12:29:39;;;;;;;20.83;19.07;;;;;;;;;;5056857;28;20486;-80
2023/12/09 12:32:07;;;;;;;18.57;17.47;;;;;;;;;;5058870;28;20439;-81
2023/12/09 12:34:34;;;;;;;19.67;18.47;;;;;;;;;;5058605;28;20443;-80
2023/12/09 12:37:01;;;;;;;19.63;18.20;;;;;;;;;;5058654;28;20516;-79
2023/12/09 12:39:28;;;;;;;20.10;18.80;;;;;;;;;;5053116;28;20466;-77
2023/12/09 12:41:56;;;;;;;18.80;17.33;;;;;;;;;;5054005;28;20486;-77
2023/12/09 12:44:24;;;;;;;20.37;18.97;;;;;;;;;;5053240;28;20443;-78
2023/12/09 12:46:51;;;;;;;19.93;18.67;;;;;;;;;;5054338;28;21018;-81
2023/12/09 12:49:18;;;;;;;18.77;17.73;;;;;;;;;;5053954;28;20545;-77
2023/12/09 12:51:45;;;;;;;19.80;18.50;;;;;;;;;;5053172;28;20450;-76
2023/12/09 12:54:12;;;;;;;20.17;18.97;;;;;;;;;;5052800;28;20508;-77
2023/12/09 12:56:39;;;;;;;19.70;18.50;;;;;;;;;;5053439;28;20532;-77
2023/12/09 12:59:08;;;;;;;19.60;18.17;;;;;;;;;;5053421;28;20450;-77
2023/12/09 13:01:35;;;;;;;20.37;18.83;;;;;;;;;;5053159;28;20486;-77
2023/12/09 13:04:02;;;;;;;19.50;18.17;;;;;;;;;;5053077;28;20471;-76
2023/12/09 13:06:29;;;;;;;20.00;18.80;;;;;;;;;;5060304;28;20446;-77
2023/12/09 13:08:56;;;;;;;19.53;18.40;;;;;;;;;;5073206;28;20969;-76
2023/12/09 13:11:23;;;;;;;24.90;23.10;;;;;;;;;;5072595;28;20818;-77
2023/12/09 13:13:50;;;;;;;21.10;19.53;;;;;;;;;;5072494;28;20542;-77
2023/12/09 13:16:19;;;;;;;20.20;18.80;;;;;;;;;;5073183;28;20420;-76
2023/12/09 13:18:46;;;;;;;19.40;18.30;;;;;;;;;;5072595;28;20917;-77
2023/12/09 13:21:13;;;;;;;18.97;17.90;;;;;;;;;;5073186;28;20456;-77
2023/12/09 13:23:39;;;;;;;20.90;19.43;;;;;;;;;;5072960;28;20428;-77
2023/12/09 13:26:07;;;;;;;19.50;18.10;;;;;;;;;;5072336;28;20527;-76
2023/12/09 13:28:35;;;;;;;22.45;20.60;;;;;;;;;;5072821;28;20470;-77
2023/12/09 13:31:02;;;;;;;19.37;18.30;;;;;;;;;;5072795;28;20594;-77
2023/12/09 13:33:31;;;;;;;20.33;18.83;;;;;;;;;;5072618;28;20429;-77
2023/12/09 13:35:58;;;;;;;20.40;18.90;;;;;;;;;;5072159;28;20528;-77
2023/12/09 13:38:25;;;;;;;21.83;20.23;;;;;;;;;;5072252;28;20432;-77
2023/12/09 13:40:52;;;;;;;20.33;18.93;;;;;;;;;;5072585;28;20429;-77
2023/12/09 13:43:19;;;;;;;20.60;19.10;;;;;;;;;;5072463;28;20448;-77
2023/12/09 13:45:46;;;;;;;20.93;19.63;;;;;;;;;;5071818;28;20474;-77
2023/12/09 13:48:14;;;;;;;20.30;19.00;;;;;;;;;;5072328;28;20466;-77
2023/12/09 13:50:42;;;;;;;19.17;18.07;;;;;;;;;;5072337;28;20482;-76
2023/12/09 13:53:09;;;;;;;19.60;18.50;;;;;;;;;;5071694;28;20470;-76
2023/12/09 13:55:36;;;;;;;23.27;21.73;;;;;;;;;;5071767;28;20453;-78
2023/12/09 13:58:04;;;;;;;20.03;18.60;;;;;;;;;;5071842;28;21035;-77
2023/12/09 14:00:31;;;;;;;21.43;20.03;;;;;;;;;;5066767;28;20478;-77
2023/12/09 14:02:58;;;;;;;20.90;19.47;;;;;;;;;;5050712;28;20487;-76
2023/12/09 14:05:25;;;;;;;19.27;18.17;;;;;;;;;;5050606;28;20952;-77
2023/12/09 14:16:05;;;;;;;20.83;19.40;;;;;;;;;;5016135;28;20442;-78
2023/12/09 14:18:32;;;;;;;22.00;20.40;;;;;;;;;;5035706;28;20492;-78
2023/12/09 14:20:59;;;;;;;22.07;20.27;;;;;;;;;;5031728;28;20823;-77
2023/12/09 14:23:27;;;;;;;22.60;20.70;;;;;;;;;;5031809;28;20449;-79
2023/12/09 14:25:54;;;;;;;21.23;19.90;;;;;;;;;;5037484;28;20434;-78